Pagrindinis puslapis
METAR-TAF:

METAR-TAF

Oro uostai :

Sørkjosen, Norvegija

platuma: 69-47N, ilguma: 020-58E, Aukštis: 0 m

Dabartinis oras

Ataskaita buvo paskelbta 9 valandos ir 21 minutes, ne 17:50 UTC
Vėjas 7 kt iš Šiaurės
Temperatūra 12°C
Drėgmė 71%
Slėgis 1015 hPa
Matomumas 10 km arba daugiau
Mažai debesys ne aukštis 2100 ft
Išsisklaidę debesys ne aukštis 3400 ft
Su prošvaistėmis ne aukštis 6300 ft

METAR: ENSR 241750Z 36007KT 9999 FEW021 SCT034 BKN063 12/07 Q1015 RMK WIND 1119FT 27005KT

Laikas: 05:11 (03:11 UTC)


TAF: trūkstamas

Orai ataskaitas ir orų prognozės (METAR, TAF).

turimą stotys yra geltonos ir raudonos taškus žemėlapyje.

Perkelti pele per norėdami pamatyti stoties vardą.

Tada spustelėkite, norėdami matyti oro stebėjimo ir prognozės.

Norėdami pakeisti žemėlapį: spustelėkite ant žalios mygtukų su juodo kryžiaus žemyn,; žalią mygtuką su brūkšneliu, jei norite nutolinti; arba žalių rodyklių gretimoms žemėlapius.


METAR-TAF: